createdAt,value
2023-04-11T00:00:23.697Z,7.00
2023-04-11T00:04:26.885Z,7.00
2023-04-11T00:08:30.002Z,7.00
2023-04-11T00:12:32.667Z,6.90
2023-04-11T00:16:35.908Z,6.80
2023-04-11T00:20:38.574Z,6.80
2023-04-11T00:24:41.098Z,6.80
2023-04-11T00:28:43.725Z,6.80
2023-04-11T00:32:47.739Z,6.70
2023-04-11T00:36:50.430Z,6.60
2023-04-11T00:40:53.460Z,6.50
2023-04-11T00:44:56.020Z,6.50
2023-04-11T00:48:59.433Z,6.50
2023-04-11T00:53:03.171Z,6.50
2023-04-11T00:57:07.237Z,6.40
2023-04-11T01:01:10.426Z,6.30
2023-04-11T01:05:14.847Z,6.40
2023-04-11T01:09:18.304Z,6.30
2023-04-11T01:13:21.005Z,6.20
2023-04-11T01:17:25.880Z,6.20
2023-04-11T01:21:28.673Z,6.20
2023-04-11T01:25:31.274Z,6.20
2023-04-11T01:29:33.868Z,6.10
2023-04-11T01:33:38.799Z,6.00
2023-04-11T01:37:41.331Z,5.90
2023-04-11T01:41:43.959Z,6.00
2023-04-11T01:45:46.476Z,6.00
2023-04-11T01:49:49.210Z,5.90
2023-04-11T01:53:51.795Z,5.80
2023-04-11T01:57:54.351Z,5.70
2023-04-11T02:01:57.384Z,5.70
2023-04-11T02:06:00.256Z,5.60
2023-04-11T02:10:03.570Z,5.60
2023-04-11T02:14:06.739Z,5.60
2023-04-11T02:18:09.634Z,5.60
2023-04-11T02:22:12.783Z,5.60
2023-04-11T02:26:15.585Z,5.50
2023-04-11T02:30:18.081Z,5.50
2023-04-11T02:34:20.813Z,5.40
2023-04-11T02:38:23.655Z,5.40
2023-04-11T02:42:27.024Z,5.30
2023-04-11T02:46:29.639Z,5.30
2023-04-11T02:50:32.605Z,5.30
2023-04-11T02:54:35.398Z,5.40
2023-04-11T02:58:42.176Z,5.40
2023-04-11T03:02:47.482Z,5.40
2023-04-11T03:06:50.668Z,5.30
2023-04-11T03:10:53.334Z,5.30
2023-04-11T03:14:58.395Z,5.20
2023-04-11T03:19:01.040Z,5.10
2023-04-11T03:23:03.722Z,5.00
2023-04-11T03:27:06.510Z,5.00
2023-04-11T03:31:10.027Z,4.90
2023-04-11T03:35:12.772Z,4.80
2023-04-11T03:39:21.710Z,4.80
2023-04-11T03:43:26.335Z,4.80
2023-04-11T03:47:28.922Z,4.90
2023-04-11T03:51:31.735Z,4.90
2023-04-11T03:55:41.583Z,4.80
2023-04-11T03:59:47.982Z,4.80
2023-04-11T04:03:51.481Z,4.90
2023-04-11T04:07:55.906Z,5.00
2023-04-11T04:12:11.705Z,5.20
2023-04-11T04:16:28.562Z,5.30
2023-04-11T04:20:34.467Z,5.10
2023-04-11T04:24:42.062Z,4.90
2023-04-11T04:28:54.040Z,4.70
2023-04-11T04:33:04.976Z,4.60
2023-04-11T04:37:10.108Z,4.60
2023-04-11T04:41:22.294Z,4.60
2023-04-11T04:45:32.692Z,4.70
2023-04-11T04:49:36.374Z,4.80
2023-04-11T04:53:39.106Z,4.90
2023-04-11T04:57:44.024Z,5.00
2023-04-11T05:01:46.859Z,5.10
2023-04-11T05:05:50.779Z,5.10
2023-04-11T05:09:53.907Z,5.20
2023-04-11T05:14:00.454Z,5.30
2023-04-11T05:18:03.489Z,5.40
2023-04-11T05:22:09.612Z,5.60
2023-04-11T05:26:16.076Z,5.70
2023-04-11T05:30:19.101Z,5.70
2023-04-11T05:34:25.248Z,5.60
2023-04-11T05:38:28.817Z,5.60
2023-04-11T05:42:31.400Z,5.50
2023-04-11T05:46:38.351Z,5.60
2023-04-11T05:50:43.057Z,5.60
2023-04-11T05:54:45.613Z,5.70
2023-04-11T05:58:48.363Z,5.90
2023-04-11T06:02:51.150Z,6.00
2023-04-11T06:06:54.304Z,6.10
2023-04-11T06:10:56.759Z,6.40
2023-04-11T06:14:59.493Z,6.50
2023-04-11T06:19:02.062Z,6.70
2023-04-11T06:23:04.750Z,6.80
2023-04-11T06:27:10.095Z,7.00
2023-04-11T06:31:12.834Z,7.10
2023-04-11T06:35:15.601Z,7.30
2023-04-11T06:39:18.581Z,7.40
2023-04-11T06:43:21.138Z,7.60
2023-04-11T06:47:23.692Z,7.70
2023-04-11T06:51:26.561Z,7.90
2023-04-11T06:55:29.102Z,8.10
2023-04-11T06:59:32.095Z,8.40
2023-04-11T07:03:34.785Z,8.70
2023-04-11T07:07:37.734Z,9.00
2023-04-11T07:11:40.794Z,9.20
2023-04-11T07:15:43.540Z,9.50
2023-04-11T07:19:46.816Z,9.60
2023-04-11T07:23:49.864Z,9.80
2023-04-11T07:27:53.142Z,10.00
2023-04-11T07:31:55.910Z,10.10
2023-04-11T07:35:58.500Z,10.20
2023-04-11T07:40:01.086Z,10.30
2023-04-11T07:44:09.602Z,10.40
2023-04-11T07:48:12.087Z,10.60
2023-04-11T07:52:14.634Z,10.80
2023-04-11T07:56:17.276Z,10.80
2023-04-11T08:00:23.270Z,11.00
2023-04-11T08:04:26.233Z,11.10
2023-04-11T08:08:28.794Z,11.30
2023-04-11T08:12:31.313Z,11.50
2023-04-11T08:16:34.820Z,11.60
2023-04-11T08:20:37.404Z,11.70
2023-04-11T08:24:39.971Z,11.80
2023-04-11T08:28:43.495Z,11.90
2023-04-11T08:32:46.254Z,12.00
2023-04-11T08:36:48.759Z,12.00
2023-04-11T08:40:51.861Z,12.20
2023-04-11T08:45:05.980Z,12.30
2023-04-11T08:49:08.504Z,12.40
2023-04-11T08:53:11.717Z,12.50
2023-04-11T08:57:28.011Z,12.60
2023-04-11T09:01:35.180Z,12.70
2023-04-11T09:05:41.766Z,13.00
2023-04-11T09:09:44.391Z,13.10
2023-04-11T09:13:46.936Z,13.40
2023-04-11T09:17:49.970Z,13.60
2023-04-11T09:21:53.683Z,14.00
2023-04-11T09:25:57.085Z,14.40
2023-04-11T09:30:02.374Z,14.60
2023-04-11T09:34:04.947Z,14.90
2023-04-11T09:38:09.381Z,15.10
2023-04-11T09:42:23.045Z,15.40
2023-04-11T09:46:25.875Z,15.50
2023-04-11T09:50:28.520Z,15.60
2023-04-11T09:54:33.478Z,15.60
2023-04-11T09:58:36.748Z,15.60
2023-04-11T10:02:39.465Z,15.80
2023-04-11T10:06:49.907Z,15.90
2023-04-11T10:10:53.109Z,16.00
2023-04-11T10:14:56.493Z,16.20
2023-04-11T10:19:00.302Z,16.50
2023-04-11T10:23:03.100Z,16.70
2023-04-11T10:27:05.836Z,17.00
2023-04-11T10:31:17.451Z,17.20
2023-04-11T10:35:21.686Z,17.30
2023-04-11T10:40:00.921Z,17.30
2023-04-11T10:44:12.662Z,17.40
2023-04-11T10:48:15.265Z,17.50
2023-04-11T10:52:23.898Z,17.40
2023-04-11T10:56:48.880Z,17.40
2023-04-11T11:00:57.772Z,17.30
2023-04-11T11:05:01.737Z,17.40
2023-04-11T11:09:20.037Z,17.50
2023-04-11T11:13:22.576Z,17.70
2023-04-11T11:17:25.714Z,17.90
2023-04-11T11:21:30.207Z,17.80
2023-04-11T11:25:33.329Z,17.80
2023-04-11T11:29:38.032Z,17.80
2023-04-11T11:33:44.284Z,17.80
2023-04-11T11:37:46.822Z,17.90
2023-04-11T11:41:49.910Z,18.00
2023-04-11T11:46:08.616Z,18.20
2023-04-11T11:50:12.174Z,18.50
2023-04-11T11:54:14.872Z,18.70
2023-04-11T11:58:19.591Z,18.90
2023-04-11T12:02:27.013Z,19.10
2023-04-11T12:06:32.920Z,19.30
2023-04-11T12:10:37.623Z,19.50
2023-04-11T12:14:40.792Z,19.50
2023-04-11T12:18:43.753Z,19.30
2023-04-11T12:23:07.594Z,19.10
2023-04-11T12:27:12.660Z,19.00
2023-04-11T12:31:15.826Z,19.20
2023-04-11T12:35:20.019Z,19.40
2023-04-11T12:39:25.515Z,19.50
2023-04-11T12:43:28.107Z,19.70
2023-04-11T12:47:30.830Z,19.80
2023-04-11T12:51:33.428Z,19.70
2023-04-11T12:55:36.195Z,19.70
2023-04-11T12:59:40.741Z,19.80
2023-04-11T13:04:20.077Z,19.90
2023-04-11T13:08:27.042Z,19.90
2023-04-11T13:12:33.392Z,19.90
2023-04-11T13:17:04.331Z,19.90
2023-04-11T13:21:21.838Z,20.00
2023-04-11T13:25:50.117Z,20.00
2023-04-11T13:29:55.908Z,20.00
2023-04-11T13:34:05.004Z,20.00
2023-04-11T13:38:17.915Z,20.00
2023-04-11T13:42:23.285Z,19.80
2023-04-11T13:46:26.317Z,19.70
2023-04-11T13:50:31.120Z,19.80
2023-04-11T13:54:33.661Z,19.60
2023-04-11T13:58:36.995Z,19.50
2023-04-11T14:02:40.393Z,19.30
2023-04-11T14:07:09.104Z,19.20
2023-04-11T14:11:11.950Z,19.20
2023-04-11T14:15:16.573Z,19.30
2023-04-11T14:19:19.389Z,19.20
2023-04-11T14:23:22.332Z,19.00
2023-04-11T14:27:24.911Z,19.00
2023-04-11T14:31:28.523Z,18.80
2023-04-11T14:35:31.839Z,18.60
2023-04-11T14:39:34.494Z,18.70
2023-04-11T14:43:37.213Z,18.80
2023-04-11T14:47:43.989Z,18.80
2023-04-11T14:51:46.930Z,18.70
2023-04-11T14:55:52.542Z,18.80
2023-04-11T15:00:22.645Z,19.00
2023-04-11T15:04:31.969Z,19.00
2023-04-11T15:08:36.477Z,19.00
2023-04-11T15:12:39.411Z,19.00
2023-04-11T15:16:42.283Z,18.80
2023-04-11T15:20:44.867Z,18.60
2023-04-11T15:24:47.444Z,18.50
2023-04-11T15:28:50.196Z,18.50
2023-04-11T15:32:53.203Z,18.50
2023-04-11T15:36:59.263Z,18.60
2023-04-11T15:41:04.116Z,18.90
2023-04-11T15:45:07.132Z,19.00
2023-04-11T15:49:09.630Z,19.00
2023-04-11T15:53:12.497Z,19.10
2023-04-11T15:57:14.925Z,19.00
2023-04-11T16:01:25.729Z,19.00
2023-04-11T16:05:32.285Z,18.90
2023-04-11T16:09:35.234Z,18.80
2023-04-11T16:13:37.797Z,18.80
2023-04-11T16:17:40.693Z,18.80
2023-04-11T16:21:43.223Z,18.90
2023-04-11T16:25:46.709Z,18.90
2023-04-11T16:29:49.494Z,18.80
2023-04-11T16:33:55.387Z,18.70
2023-04-11T16:37:58.453Z,18.60
2023-04-11T16:42:01.702Z,18.30
2023-04-11T16:46:04.312Z,18.10
2023-04-11T16:50:07.021Z,18.00
2023-04-11T16:54:10.891Z,17.80
2023-04-11T16:58:13.323Z,17.60
2023-04-11T17:02:16.467Z,17.40
2023-04-11T17:06:19.306Z,17.20
2023-04-11T17:10:21.737Z,17.10
2023-04-11T17:14:25.379Z,17.00
2023-04-11T17:18:27.807Z,17.10
2023-04-11T17:22:30.790Z,17.20
2023-04-11T17:26:34.313Z,17.40
2023-04-11T17:30:37.037Z,17.40
2023-04-11T17:34:39.625Z,17.20
2023-04-11T17:38:45.681Z,17.10
2023-04-11T17:42:48.222Z,16.90
2023-04-11T17:46:51.205Z,16.70
2023-04-11T17:50:55.472Z,16.50
2023-04-11T17:54:57.920Z,16.50
2023-04-11T17:59:00.662Z,16.50
2023-04-11T18:03:03.740Z,16.40
2023-04-11T18:07:07.332Z,16.30
2023-04-11T18:11:09.998Z,16.20
2023-04-11T18:15:12.930Z,16.00
2023-04-11T18:19:15.644Z,15.80
2023-04-11T18:23:18.250Z,15.60
2023-04-11T18:27:20.784Z,15.50
2023-04-11T18:31:23.634Z,15.30
2023-04-11T18:35:26.544Z,15.30
2023-04-11T18:39:29.434Z,15.20
2023-04-11T18:43:32.148Z,15.20
2023-04-11T18:47:35.192Z,15.30
2023-04-11T18:51:38.362Z,15.30
2023-04-11T18:55:41.364Z,15.30
2023-04-11T18:59:44.708Z,15.30
2023-04-11T19:03:49.317Z,15.40
2023-04-11T19:07:51.926Z,15.30
2023-04-11T19:11:54.513Z,15.40
2023-04-11T19:15:57.093Z,15.40
2023-04-11T19:20:01.736Z,15.40
2023-04-11T19:24:05.326Z,15.50
2023-04-11T19:28:07.820Z,15.50
2023-04-11T19:32:10.459Z,15.50
2023-04-11T19:36:13.198Z,15.50
2023-04-11T19:40:15.764Z,15.40
2023-04-11T19:44:18.570Z,15.40
2023-04-11T19:48:21.117Z,15.40
2023-04-11T19:52:24.057Z,15.30
2023-04-11T19:56:26.740Z,15.30
2023-04-11T20:00:32.564Z,15.30
2023-04-11T20:04:35.044Z,15.20
2023-04-11T20:08:38.253Z,15.20
2023-04-11T20:12:40.989Z,15.20
2023-04-11T20:16:43.750Z,15.10
2023-04-11T20:20:47.037Z,15.10
2023-04-11T20:24:50.160Z,15.10
2023-04-11T20:28:53.165Z,15.10
2023-04-11T20:32:56.263Z,15.00
2023-04-11T20:37:09.086Z,15.00
2023-04-11T20:41:12.130Z,15.00
2023-04-11T20:45:15.932Z,15.00
2023-04-11T20:49:18.483Z,15.00
2023-04-11T20:53:21.069Z,15.00
2023-04-11T20:57:24.036Z,15.00
2023-04-11T21:01:26.711Z,15.00
2023-04-11T21:05:29.808Z,14.90
2023-04-11T21:09:32.292Z,14.90
2023-04-11T21:13:34.904Z,14.90
2023-04-11T21:17:39.423Z,14.90
2023-04-11T21:21:42.422Z,14.90
2023-04-11T21:25:44.992Z,14.90
2023-04-11T21:29:47.573Z,14.90
2023-04-11T21:33:50.064Z,14.80
2023-04-11T21:37:52.869Z,14.80
2023-04-11T21:41:55.372Z,14.80
2023-04-11T21:46:00.160Z,14.70
2023-04-11T21:50:02.749Z,14.70
2023-04-11T21:54:05.507Z,14.60
2023-04-11T21:58:13.291Z,14.50
2023-04-11T22:02:24.894Z,14.50
2023-04-11T22:06:30.346Z,14.50
2023-04-11T22:10:46.818Z,14.50
2023-04-11T22:14:52.830Z,14.50
2023-04-11T22:18:58.326Z,14.40
2023-04-11T22:23:00.965Z,14.40
2023-04-11T22:27:04.692Z,14.30
2023-04-11T22:31:07.546Z,14.30
2023-04-11T22:35:10.490Z,14.20
2023-04-11T22:39:12.988Z,14.20
2023-04-11T22:43:16.091Z,14.20
2023-04-11T22:47:21.908Z,14.20
2023-04-11T22:51:24.812Z,14.10
2023-04-11T22:55:28.529Z,14.10
2023-04-11T22:59:30.987Z,14.00
2023-04-11T23:03:33.503Z,14.00
2023-04-11T23:07:36.039Z,14.00
2023-04-11T23:11:38.746Z,14.00
2023-04-11T23:15:41.477Z,14.00
2023-04-11T23:19:44.191Z,14.00
2023-04-11T23:23:47.013Z,14.00
2023-04-11T23:27:49.554Z,14.00
2023-04-11T23:31:52.030Z,14.00
2023-04-11T23:35:54.556Z,14.00
2023-04-11T23:39:57.462Z,14.00
2023-04-11T23:44:00.135Z,13.90
2023-04-11T23:48:02.946Z,13.90
2023-04-11T23:52:05.630Z,13.80
2023-04-11T23:56:09.143Z,13.80
